createdAt,value
2018-04-20T00:00:16.961Z,939.10
2018-04-20T00:01:16.991Z,939.11
2018-04-20T00:02:17.185Z,939.13
2018-04-20T00:03:17.110Z,939.11
2018-04-20T00:04:17.010Z,939.10
2018-04-20T00:05:17.053Z,939.11
2018-04-20T00:06:20.088Z,939.10
2018-04-20T00:07:17.086Z,939.10
2018-04-20T00:08:17.175Z,939.07
2018-04-20T00:09:17.086Z,939.10
2018-04-20T00:10:17.103Z,939.09
2018-04-20T00:11:17.135Z,939.09
2018-04-20T00:12:36.357Z,939.10
2018-04-20T00:13:17.244Z,939.11
2018-04-20T00:14:17.171Z,939.09
2018-04-20T00:15:20.240Z,939.09
2018-04-20T00:16:23.448Z,939.12
2018-04-20T00:17:17.204Z,939.10
2018-04-20T00:18:17.390Z,939.10
2018-04-20T00:19:20.261Z,939.06
2018-04-20T00:20:17.268Z,939.07
2018-04-20T00:21:17.249Z,939.02
2018-04-20T00:22:17.267Z,939.05
2018-04-20T00:23:17.385Z,939.03
2018-04-20T00:24:17.507Z,939.07
2018-04-20T00:25:42.983Z,939.05
2018-04-20T00:26:17.350Z,939.04
2018-04-20T00:27:17.340Z,939.03
2018-04-20T00:28:17.480Z,938.99
2018-04-20T00:29:17.392Z,939.05
2018-04-20T00:30:17.385Z,939.06
2018-04-20T00:32:03.404Z,939.04
2018-04-20T00:32:17.407Z,939.06
2018-04-20T00:33:17.526Z,939.09
2018-04-20T00:34:17.462Z,939.09
2018-04-20T00:35:17.662Z,939.09
2018-04-20T00:36:17.478Z,939.14
2018-04-20T00:37:18.050Z,939.13
2018-04-20T00:38:17.496Z,939.16
2018-04-20T00:39:17.614Z,939.19
2018-04-20T00:40:17.521Z,939.20
2018-04-20T00:42:03.480Z,939.23
2018-04-20T00:42:17.632Z,939.18
2018-04-20T00:43:17.567Z,939.20
2018-04-20T00:45:17.748Z,939.21
2018-04-20T00:46:17.634Z,939.14
2018-04-20T00:47:17.652Z,939.14
2018-04-20T00:48:17.649Z,939.15
2018-04-20T00:50:10.069Z,939.16
2018-04-20T00:50:17.759Z,939.15
2018-04-20T00:51:17.705Z,939.11
2018-04-20T00:52:17.704Z,939.12
2018-04-20T00:53:17.733Z,939.11
2018-04-20T00:54:17.725Z,939.11
2018-04-20T00:55:17.857Z,939.14
2018-04-20T00:56:17.773Z,939.12
2018-04-20T00:57:17.763Z,939.14
2018-04-20T00:58:17.776Z,939.12
2018-04-20T00:59:17.785Z,939.14
2018-04-20T01:00:18.162Z,939.14
2018-04-20T01:01:17.816Z,939.14
2018-04-20T01:02:17.835Z,939.12
2018-04-20T01:03:17.873Z,939.10
2018-04-20T01:04:17.860Z,939.08
2018-04-20T01:05:17.982Z,939.07
2018-04-20T01:06:17.894Z,939.07
2018-04-20T01:07:17.934Z,939.07
2018-04-20T01:08:17.919Z,939.06
2018-04-20T01:09:17.932Z,939.06
2018-04-20T01:10:18.041Z,939.07
2018-04-20T01:11:17.957Z,939.05
2018-04-20T01:12:17.965Z,939.09
2018-04-20T01:13:18.009Z,939.10
2018-04-20T01:15:04.008Z,939.11
2018-04-20T01:15:18.109Z,939.09
2018-04-20T01:16:18.021Z,939.09
2018-04-20T01:17:18.039Z,939.08
2018-04-20T01:18:18.051Z,939.11
2018-04-20T01:19:18.138Z,939.14
2018-04-20T01:20:18.205Z,939.11
2018-04-20T01:21:18.092Z,939.10
2018-04-20T01:22:18.131Z,939.13
2018-04-20T01:23:18.117Z,939.12
2018-04-20T01:24:18.160Z,939.13
2018-04-20T01:25:18.249Z,939.08
2018-04-20T01:26:18.160Z,939.08
2018-04-20T01:27:18.203Z,939.06
2018-04-20T01:28:18.188Z,939.06
2018-04-20T01:29:18.203Z,938.99
2018-04-20T01:30:18.322Z,939.04
2018-04-20T01:31:18.229Z,939.00
2018-04-20T01:32:18.241Z,939.02
2018-04-20T01:33:18.269Z,939.02
2018-04-20T01:34:18.296Z,939.02
2018-04-20T01:35:18.382Z,938.98
2018-04-20T01:36:18.321Z,939.04
2018-04-20T01:37:18.343Z,939.00
2018-04-20T01:38:18.341Z,939.03
2018-04-20T01:39:18.336Z,939.02
2018-04-20T01:40:18.452Z,938.99
2018-04-20T01:41:18.379Z,939.01
2018-04-20T01:42:18.409Z,939.00
2018-04-20T01:43:18.416Z,938.96
2018-04-20T01:44:18.435Z,938.98
2018-04-20T01:45:18.519Z,938.98
2018-04-20T01:46:18.448Z,938.95
2018-04-20T01:47:18.473Z,938.93
2018-04-20T01:48:18.467Z,938.92
2018-04-20T01:49:18.476Z,938.92
2018-04-20T01:50:18.585Z,938.95
2018-04-20T01:51:18.501Z,938.99
2018-04-20T01:52:18.511Z,939.00
2018-04-20T01:53:18.528Z,938.99
2018-04-20T01:54:18.545Z,939.01
2018-04-20T01:55:18.666Z,939.01
2018-04-20T01:56:18.594Z,938.99
2018-04-20T01:57:18.613Z,939.03
2018-04-20T01:58:18.629Z,939.02
2018-04-20T01:59:18.613Z,939.01
2018-04-20T02:00:18.730Z,939.02
2018-04-20T02:01:18.650Z,939.00
2018-04-20T02:02:18.682Z,939.03
2018-04-20T02:03:18.668Z,939.04
2018-04-20T02:04:18.708Z,939.02
2018-04-20T02:05:18.793Z,939.03
2018-04-20T02:06:18.707Z,939.04
2018-04-20T02:07:18.731Z,939.04
2018-04-20T02:08:18.761Z,939.01
2018-04-20T02:09:18.776Z,939.02
2018-04-20T02:10:18.876Z,939.02
2018-04-20T02:11:18.775Z,939.03
2018-04-20T02:12:18.788Z,939.01
2018-04-20T02:13:18.883Z,939.00
2018-04-20T02:14:18.846Z,939.02
2018-04-20T02:15:18.963Z,939.04
2018-04-20T02:16:18.841Z,938.99
2018-04-20T02:17:18.857Z,939.01
2018-04-20T02:18:18.899Z,939.01
2018-04-20T02:19:18.913Z,939.00
2018-04-20T02:20:19.015Z,939.01
2018-04-20T02:21:18.909Z,938.97
2018-04-20T02:22:18.951Z,938.99
2018-04-20T02:23:18.935Z,939.00
2018-04-20T02:24:18.959Z,939.03
2018-04-20T02:25:19.099Z,938.99
2018-04-20T02:26:18.982Z,939.06
2018-04-20T02:27:19.004Z,939.03
2018-04-20T02:28:19.032Z,939.03
2018-04-20T02:29:19.037Z,939.04
2018-04-20T02:30:19.167Z,938.97
2018-04-20T02:31:19.083Z,938.99
2018-04-20T02:32:19.079Z,939.03
2018-04-20T02:33:19.110Z,939.03
2018-04-20T02:34:19.096Z,939.03
2018-04-20T02:35:19.203Z,939.03
2018-04-20T02:36:19.157Z,939.07
2018-04-20T02:37:19.135Z,938.99
2018-04-20T02:38:19.174Z,938.97
2018-04-20T02:39:19.170Z,938.96
2018-04-20T02:40:19.270Z,938.96
2018-04-20T02:41:19.184Z,938.94
2018-04-20T02:42:19.202Z,938.92
2018-04-20T02:43:19.218Z,938.93
2018-04-20T02:44:19.228Z,938.95
2018-04-20T02:45:19.341Z,938.90
2018-04-20T02:46:19.249Z,938.94
2018-04-20T02:47:19.262Z,938.92
2018-04-20T02:48:19.282Z,938.90
2018-04-20T02:49:19.321Z,938.90
2018-04-20T02:50:19.433Z,938.90
2018-04-20T02:51:19.323Z,938.95
2018-04-20T02:52:19.337Z,938.91
2018-04-20T02:53:19.348Z,938.95
2018-04-20T02:54:19.361Z,938.92
2018-04-20T02:55:19.504Z,938.93
2018-04-20T02:56:19.387Z,938.91
2018-04-20T02:57:19.430Z,938.88
2018-04-20T02:58:19.419Z,938.91
2018-04-20T02:59:19.458Z,938.92
2018-04-20T03:00:19.438Z,938.95
2018-04-20T03:01:19.611Z,938.93
2018-04-20T03:02:19.495Z,938.99
2018-04-20T03:03:19.491Z,938.98
2018-04-20T03:04:19.507Z,938.98
2018-04-20T03:05:19.508Z,938.97
2018-04-20T03:06:19.666Z,938.95
2018-04-20T03:07:19.562Z,938.96
2018-04-20T03:08:19.547Z,938.93
2018-04-20T03:09:19.594Z,938.97
2018-04-20T03:10:19.605Z,938.92
2018-04-20T03:11:19.711Z,938.93
2018-04-20T03:12:19.596Z,938.90
2018-04-20T03:13:19.646Z,938.93
2018-04-20T03:14:19.628Z,938.93
2018-04-20T03:15:19.646Z,938.91
2018-04-20T03:16:19.756Z,938.99
2018-04-20T03:17:19.690Z,938.97
2018-04-20T03:18:19.693Z,938.99
2018-04-20T03:19:19.694Z,938.98
2018-04-20T03:20:19.720Z,938.97
2018-04-20T03:21:19.818Z,938.94
2018-04-20T03:22:19.764Z,939.00
2018-04-20T03:23:19.749Z,938.99
2018-04-20T03:24:19.791Z,938.99
2018-04-20T03:25:19.775Z,939.01
2018-04-20T03:26:19.884Z,938.99
2018-04-20T03:27:19.801Z,938.98
2018-04-20T03:28:19.811Z,938.97
2018-04-20T03:29:19.841Z,938.91
2018-04-20T03:30:19.866Z,938.94
2018-04-20T03:31:19.957Z,938.91
2018-04-20T03:32:19.890Z,938.86
2018-04-20T03:33:19.880Z,938.83
2018-04-20T03:34:19.901Z,938.83
2018-04-20T03:35:19.930Z,938.81
2018-04-20T03:36:20.042Z,938.81
2018-04-20T03:37:19.956Z,938.85
2018-04-20T03:38:19.945Z,938.81
2018-04-20T03:39:19.971Z,938.79
2018-04-20T03:40:19.969Z,938.79
2018-04-20T03:41:20.109Z,938.79
2018-04-20T03:42:19.999Z,938.80
2018-04-20T03:43:20.011Z,938.76
2018-04-20T03:44:20.023Z,938.76
2018-04-20T03:45:20.066Z,938.78
2018-04-20T03:46:20.153Z,938.73
2018-04-20T03:47:20.060Z,938.75
2018-04-20T03:48:20.074Z,938.74
2018-04-20T03:49:20.088Z,938.71
2018-04-20T03:50:20.129Z,938.72
2018-04-20T03:51:20.251Z,938.74
2018-04-20T03:52:20.130Z,938.74
2018-04-20T03:53:20.152Z,938.74
2018-04-20T03:54:20.179Z,938.73
2018-04-20T03:55:20.193Z,938.75
2018-04-20T03:56:20.297Z,938.74
2018-04-20T03:57:20.204Z,938.78
2018-04-20T03:58:20.210Z,938.77
2018-04-20T03:59:20.228Z,938.76
2018-04-20T04:00:20.243Z,938.74
2018-04-20T04:01:20.348Z,938.76
2018-04-20T04:02:20.286Z,938.76
2018-04-20T04:03:20.294Z,938.71
2018-04-20T04:04:20.286Z,938.73
2018-04-20T04:05:20.293Z,938.71
2018-04-20T04:06:20.410Z,938.68
2018-04-20T04:07:20.319Z,938.67
2018-04-20T04:08:20.379Z,938.64
2018-04-20T04:09:20.362Z,938.62
2018-04-20T04:10:20.388Z,938.56
2018-04-20T04:11:20.473Z,938.57
2018-04-20T04:12:20.452Z,938.52
2018-04-20T04:13:20.397Z,938.55
2018-04-20T04:14:20.409Z,938.54
2018-04-20T04:15:20.435Z,938.58
2018-04-20T04:16:20.438Z,938.58
2018-04-20T04:17:20.578Z,938.57
2018-04-20T04:18:20.493Z,938.61
2018-04-20T04:19:20.479Z,938.60
2018-04-20T04:20:20.485Z,938.60
2018-04-20T04:21:20.520Z,938.53
2018-04-20T04:22:26.500Z,938.52
2018-04-20T04:23:20.552Z,938.51
2018-04-20T04:24:20.570Z,938.50
2018-04-20T04:25:20.563Z,938.48
2018-04-20T04:26:20.560Z,938.44
2018-04-20T04:27:20.578Z,938.45
2018-04-20T04:28:20.714Z,938.44
2018-04-20T04:29:20.618Z,938.44
2018-04-20T04:30:20.608Z,938.37
2018-04-20T04:31:20.626Z,938.41
2018-04-20T04:32:20.641Z,938.36
2018-04-20T04:33:20.656Z,938.34
2018-04-20T04:34:20.665Z,938.38
2018-04-20T04:35:20.708Z,938.36
2018-04-20T04:36:20.689Z,938.36
2018-04-20T04:37:20.701Z,938.38
2018-04-20T04:38:20.744Z,938.35
2018-04-20T04:39:20.751Z,938.36
2018-04-20T04:40:20.740Z,938.32
2018-04-20T04:41:20.782Z,938.26
2018-04-20T04:42:20.763Z,938.26
2018-04-20T04:43:20.804Z,938.22
2018-04-20T04:44:20.793Z,938.22
2018-04-20T04:45:20.830Z,938.27
2018-04-20T04:46:20.809Z,938.24
2018-04-20T04:47:20.821Z,938.20
2018-04-20T04:48:20.863Z,938.22
2018-04-20T04:49:20.876Z,938.19
2018-04-20T04:50:20.857Z,938.22
2018-04-20T04:51:20.903Z,938.20
2018-04-20T04:52:20.907Z,938.20
2018-04-20T04:53:20.923Z,938.22
2018-04-20T04:54:20.905Z,938.23
2018-04-20T04:55:20.952Z,938.19
2018-04-20T04:56:20.934Z,938.20
2018-04-20T04:57:20.955Z,938.20
2018-04-20T04:58:20.958Z,938.20
2018-04-20T04:59:20.973Z,938.21
2018-04-20T05:00:21.557Z,938.21
2018-04-20T05:01:20.999Z,938.20
2018-04-20T05:02:21.014Z,938.18
2018-04-20T05:03:21.033Z,938.19
2018-04-20T05:04:21.038Z,938.16
2018-04-20T05:05:21.075Z,938.11
2018-04-20T05:06:21.066Z,938.11
2018-04-20T05:07:21.074Z,938.07
2018-04-20T05:08:21.103Z,938.06
2018-04-20T05:09:21.096Z,938.04
2018-04-20T05:10:21.104Z,938.06
2018-04-20T05:11:21.144Z,938.06
2018-04-20T05:12:21.128Z,938.08
2018-04-20T05:13:21.168Z,938.11
2018-04-20T05:14:21.176Z,938.13
2018-04-20T05:15:21.171Z,938.09
2018-04-20T05:16:21.188Z,938.08
2018-04-20T05:17:21.186Z,938.06
2018-04-20T05:18:21.207Z,938.09
2018-04-20T05:19:21.307Z,938.01
2018-04-20T05:20:21.249Z,938.05
2018-04-20T05:21:21.243Z,938.00
2018-04-20T05:22:21.256Z,938.03
2018-04-20T05:23:21.270Z,938.03
2018-04-20T05:24:21.303Z,937.99
2018-04-20T05:25:21.307Z,938.01
2018-04-20T05:26:21.306Z,937.99
2018-04-20T05:27:21.340Z,938.02
2018-04-20T05:28:21.344Z,937.96
2018-04-20T05:29:21.343Z,937.96
2018-04-20T05:30:21.348Z,938.00
2018-04-20T05:31:21.361Z,937.95
2018-04-20T05:32:21.387Z,937.94
2018-04-20T05:33:21.513Z,937.90
2018-04-20T05:34:21.396Z,937.87
2018-04-20T05:35:21.432Z,937.86
2018-04-20T05:36:21.438Z,937.83
2018-04-20T05:37:21.438Z,937.80
2018-04-20T05:38:21.448Z,937.74
2018-04-20T05:39:21.458Z,937.78
2018-04-20T05:40:21.503Z,937.72
2018-04-20T05:41:21.494Z,937.72
2018-04-20T05:42:21.526Z,937.69
2018-04-20T05:43:21.513Z,937.67
2018-04-20T05:44:21.526Z,937.71
2018-04-20T05:45:21.550Z,937.68
2018-04-20T05:46:21.549Z,937.64
2018-04-20T05:47:21.557Z,937.69
2018-04-20T05:48:21.592Z,937.66
2018-04-20T05:49:21.604Z,937.66
2018-04-20T05:50:21.598Z,937.64
2018-04-20T05:51:21.607Z,937.65
2018-04-20T05:52:21.642Z,937.63
2018-04-20T05:53:21.651Z,937.67
2018-04-20T05:54:21.664Z,937.61
2018-04-20T05:55:21.671Z,937.68
2018-04-20T05:56:21.676Z,937.65
2018-04-20T05:57:21.701Z,937.67
2018-04-20T05:58:21.685Z,937.63
2018-04-20T05:59:21.702Z,937.68
2018-04-20T06:00:21.713Z,937.70
2018-04-20T06:01:21.764Z,937.70
2018-04-20T06:02:21.765Z,937.68
2018-04-20T06:03:21.784Z,937.71
2018-04-20T06:04:21.790Z,937.67
2018-04-20T06:05:21.783Z,937.69
2018-04-20T06:06:21.798Z,937.61
2018-04-20T06:07:21.811Z,937.64
2018-04-20T06:08:21.835Z,937.65
2018-04-20T06:09:21.822Z,937.61
2018-04-20T06:10:21.856Z,937.62
2018-04-20T06:11:21.854Z,937.61
2018-04-20T06:12:21.859Z,937.65
2018-04-20T06:13:21.974Z,937.62
2018-04-20T06:14:21.898Z,937.63
2018-04-20T06:15:21.899Z,937.61
2018-04-20T06:16:21.933Z,937.62
2018-04-20T06:17:21.923Z,937.61
2018-04-20T06:18:21.931Z,937.61
2018-04-20T06:19:21.952Z,937.59
2018-04-20T06:20:21.981Z,937.56
2018-04-20T06:21:22.024Z,937.51
2018-04-20T06:22:21.989Z,937.54
2018-04-20T06:23:21.991Z,937.51
2018-04-20T06:24:22.013Z,937.54
2018-04-20T06:25:22.042Z,937.53
2018-04-20T06:26:22.062Z,937.55
2018-04-20T06:27:22.065Z,937.51
2018-04-20T06:28:22.077Z,937.52
2018-04-20T06:29:22.076Z,937.49
2018-04-20T06:30:22.107Z,937.53
2018-04-20T06:31:22.091Z,937.52
2018-04-20T06:32:22.113Z,937.53
2018-04-20T06:33:22.116Z,937.52
2018-04-20T06:34:22.132Z,937.53
2018-04-20T06:35:22.139Z,937.51
2018-04-20T06:36:22.153Z,937.54
2018-04-20T06:37:22.189Z,937.57
2018-04-20T06:38:22.172Z,937.55
2018-04-20T06:39:22.214Z,937.54
2018-04-20T06:40:22.203Z,937.49
2018-04-20T06:41:22.209Z,937.48
2018-04-20T06:42:22.219Z,937.48
2018-04-20T06:43:22.416Z,937.43
2018-04-20T06:44:22.245Z,937.43
2018-04-20T06:45:22.255Z,937.41
2018-04-20T06:46:22.279Z,937.43
2018-04-20T06:47:22.295Z,937.41
2018-04-20T06:48:22.320Z,937.37
2018-04-20T06:49:22.307Z,937.39
2018-04-20T06:50:22.314Z,937.42
2018-04-20T06:51:22.326Z,937.34
2018-04-20T06:52:22.347Z,937.41
2018-04-20T06:53:22.351Z,937.43
2018-04-20T06:54:22.462Z,937.36
2018-04-20T06:55:22.379Z,937.38
2018-04-20T06:56:22.415Z,937.36
2018-04-20T06:57:22.432Z,937.36
2018-04-20T06:58:22.424Z,937.33
2018-04-20T06:59:22.431Z,937.37
2018-04-20T07:00:22.440Z,937.34
2018-04-20T07:01:22.473Z,937.35
2018-04-20T07:02:22.482Z,937.35
2018-04-20T07:03:22.478Z,937.38
2018-04-20T07:04:22.586Z,937.39
2018-04-20T07:05:22.522Z,937.45
2018-04-20T07:06:23.042Z,937.40
2018-04-20T07:07:22.543Z,937.45
2018-04-20T07:08:22.757Z,937.41
2018-04-20T07:09:22.657Z,937.44
2018-04-20T07:10:22.582Z,937.44
2018-04-20T07:11:22.564Z,937.45
2018-04-20T07:12:22.577Z,937.44
2018-04-20T07:13:22.589Z,937.46
2018-04-20T07:14:22.612Z,937.47
2018-04-20T07:15:22.620Z,937.45
2018-04-20T07:16:22.629Z,937.48
2018-04-20T07:17:22.640Z,937.49
2018-04-20T07:18:22.652Z,937.46
2018-04-20T07:19:22.672Z,937.47
2018-04-20T07:20:22.672Z,937.45
2018-04-20T07:21:22.695Z,937.44
2018-04-20T07:22:22.723Z,937.46
2018-04-20T07:23:22.783Z,937.39
2018-04-20T07:24:22.819Z,937.43
2018-04-20T07:25:22.730Z,937.41
2018-04-20T07:26:22.768Z,937.39
2018-04-20T07:27:22.753Z,937.38
2018-04-20T07:28:22.765Z,937.36
2018-04-20T07:29:22.805Z,937.33
2018-04-20T07:30:22.817Z,937.35
2018-04-20T07:31:22.808Z,937.37
2018-04-20T07:32:22.816Z,937.37
2018-04-20T07:33:22.825Z,937.39
2018-04-20T07:34:22.838Z,937.38
2018-04-20T07:35:22.877Z,937.42
2018-04-20T07:36:22.887Z,937.30
2018-04-20T07:37:22.871Z,937.35
2018-04-20T07:38:22.913Z,937.32
2018-04-20T07:39:22.894Z,937.36
2018-04-20T07:40:22.906Z,937.32
2018-04-20T07:41:22.981Z,937.31
2018-04-20T07:42:22.957Z,937.30
2018-04-20T07:43:22.961Z,937.32
2018-04-20T07:44:22.981Z,937.32
2018-04-20T07:45:22.967Z,937.33
2018-04-20T07:46:22.989Z,937.28
2018-04-20T07:47:23.015Z,937.26
2018-04-20T07:48:23.013Z,937.28
2018-04-20T07:49:23.021Z,937.33
2018-04-20T07:50:23.052Z,937.29
2018-04-20T07:51:23.033Z,937.34
2018-04-20T07:52:23.083Z,937.40
2018-04-20T07:53:23.088Z,937.36
2018-04-20T07:54:23.077Z,937.38
2018-04-20T07:55:23.089Z,937.36
2018-04-20T07:56:23.125Z,937.32
2018-04-20T07:57:23.124Z,937.31
2018-04-20T07:58:23.145Z,937.32
2018-04-20T07:59:23.255Z,937.33
2018-04-20T08:00:23.184Z,937.33
2018-04-20T08:01:23.154Z,937.31
2018-04-20T08:02:23.163Z,937.31
2018-04-20T08:03:23.175Z,937.32
2018-04-20T08:04:23.212Z,937.31
2018-04-20T08:05:23.222Z,937.34
2018-04-20T08:06:23.235Z,937.31
2018-04-20T08:07:23.220Z,937.30
2018-04-20T08:08:23.770Z,937.32
2018-04-20T08:09:23.373Z,937.29
2018-04-20T08:10:23.261Z,937.31
2018-04-20T08:11:23.264Z,937.26
2018-04-20T08:12:23.283Z,937.26
2018-04-20T08:13:23.293Z,937.31
2018-04-20T08:14:23.336Z,937.27
2018-04-20T08:15:23.314Z,937.27
2018-04-20T08:16:23.341Z,937.31
2018-04-20T08:17:23.341Z,937.31
2018-04-20T08:18:23.357Z,937.35
2018-04-20T08:19:23.462Z,937.36
2018-04-20T08:20:23.371Z,937.34
2018-04-20T08:21:23.386Z,937.38
2018-04-20T08:22:23.396Z,937.40
2018-04-20T08:23:23.407Z,937.38
2018-04-20T08:24:23.421Z,937.34
2018-04-20T08:25:23.435Z,937.34
2018-04-20T08:26:23.445Z,937.38
2018-04-20T08:27:23.489Z,937.41
2018-04-20T08:28:23.490Z,937.42
2018-04-20T08:29:23.479Z,937.40
2018-04-20T08:30:23.491Z,937.42
2018-04-20T08:31:23.528Z,937.49
2018-04-20T08:32:23.523Z,937.43
2018-04-20T08:33:23.535Z,937.46
2018-04-20T08:34:23.547Z,937.43
2018-04-20T08:35:23.576Z,937.40
2018-04-20T08:36:23.591Z,937.46
2018-04-20T08:37:23.577Z,937.48
2018-04-20T08:38:23.583Z,937.50
2018-04-20T08:39:23.595Z,937.50
2018-04-20T08:40:23.638Z,937.50
2018-04-20T08:41:23.615Z,937.49
2018-04-20T08:42:23.658Z,937.46
2018-04-20T08:43:23.639Z,937.49
2018-04-20T08:44:23.662Z,937.48
2018-04-20T08:45:23.687Z,937.51
2018-04-20T08:46:23.703Z,937.50
2018-04-20T08:47:23.709Z,937.47
2018-04-20T08:48:23.724Z,937.48
2018-04-20T08:49:23.731Z,937.50
2018-04-20T08:50:23.721Z,937.51
2018-04-20T08:51:23.731Z,937.50
2018-04-20T08:52:23.746Z,937.49
2018-04-20T08:53:23.753Z,937.52
2018-04-20T08:54:23.789Z,937.53
2018-04-20T08:55:23.785Z,937.53
2018-04-20T08:56:23.787Z,937.53
2018-04-20T08:57:23.797Z,937.53
2018-04-20T08:58:23.835Z,937.52
2018-04-20T08:59:23.933Z,937.53
2018-04-20T09:00:23.836Z,937.55
2018-04-20T09:01:23.859Z,937.60
2018-04-20T09:02:23.899Z,937.54
2018-04-20T09:03:23.878Z,937.56
2018-04-20T09:04:23.877Z,937.58
2018-04-20T09:05:23.920Z,937.58
2018-04-20T09:06:23.929Z,937.59
2018-04-20T09:07:23.919Z,937.61
2018-04-20T09:08:23.953Z,937.61
2018-04-20T09:09:23.947Z,937.59
2018-04-20T09:10:23.975Z,937.58
2018-04-20T09:11:23.956Z,937.58
2018-04-20T09:12:23.967Z,937.58
2018-04-20T09:13:24.009Z,937.58
2018-04-20T09:14:24.557Z,937.57
2018-04-20T09:15:24.029Z,937.55
2018-04-20T09:16:24.040Z,937.58
2018-04-20T09:17:24.029Z,937.59
2018-04-20T09:18:24.040Z,937.63
2018-04-20T09:19:24.072Z,937.59
2018-04-20T09:20:24.075Z,937.65
2018-04-20T09:21:24.073Z,937.65
2018-04-20T09:22:24.080Z,937.64
2018-04-20T09:23:24.091Z,937.66
2018-04-20T09:24:24.147Z,937.63
2018-04-20T09:25:24.120Z,937.62
2018-04-20T09:26:24.131Z,937.68
2018-04-20T09:27:24.137Z,937.73
2018-04-20T09:28:24.153Z,937.73
2018-04-20T09:29:24.163Z,937.72
2018-04-20T09:30:24.171Z,937.76
2018-04-20T09:31:24.208Z,937.74
2018-04-20T09:32:24.205Z,937.76
2018-04-20T09:33:24.210Z,937.74
2018-04-20T09:34:24.241Z,937.78
2018-04-20T09:35:24.254Z,937.82
2018-04-20T09:36:24.243Z,937.84
2018-04-20T09:37:24.256Z,937.86
2018-04-20T09:38:24.269Z,937.87
2018-04-20T09:39:24.301Z,937.85
2018-04-20T09:40:24.282Z,937.87
2018-04-20T09:41:24.327Z,937.88
2018-04-20T09:42:24.312Z,937.86
2018-04-20T09:43:24.348Z,937.85
2018-04-20T09:44:24.348Z,937.86
2018-04-20T09:45:24.347Z,937.80
2018-04-20T09:46:24.355Z,937.83
2018-04-20T09:47:24.376Z,937.82
2018-04-20T09:48:24.388Z,937.84
2018-04-20T09:49:24.436Z,937.88
2018-04-20T09:50:24.434Z,937.90
2018-04-20T09:51:24.474Z,937.93
2018-04-20T09:52:24.453Z,937.92
2018-04-20T09:53:24.467Z,937.95
2018-04-20T09:54:24.550Z,937.95
2018-04-20T09:55:24.486Z,937.95
2018-04-20T09:56:24.473Z,937.97
2018-04-20T09:57:24.482Z,937.96
2018-04-20T09:58:24.505Z,938.00
2018-04-20T09:59:24.509Z,937.99
2018-04-20T10:00:24.582Z,937.97
2018-04-20T10:01:24.567Z,938.00
2018-04-20T10:02:24.568Z,938.01
2018-04-20T10:03:24.551Z,938.05
2018-04-20T10:04:24.564Z,938.02
2018-04-20T10:05:24.611Z,938.04
2018-04-20T10:06:24.602Z,938.09
2018-04-20T10:07:24.613Z,938.06
2018-04-20T10:08:24.614Z,938.12
2018-04-20T10:09:24.623Z,938.14
2018-04-20T10:10:24.636Z,938.11
2018-04-20T10:11:24.677Z,938.08
2018-04-20T10:12:24.669Z,938.09
2018-04-20T10:13:24.674Z,938.10
2018-04-20T10:14:24.791Z,938.12
2018-04-20T10:15:24.715Z,938.17
2018-04-20T10:16:24.738Z,938.17
2018-04-20T10:17:24.750Z,938.18
2018-04-20T10:18:24.770Z,938.18
2018-04-20T10:19:24.784Z,938.23
2018-04-20T10:20:24.766Z,938.22
2018-04-20T10:21:24.774Z,938.25
2018-04-20T10:22:24.791Z,938.23
2018-04-20T10:23:24.805Z,938.20
2018-04-20T10:25:24.932Z,938.22
2018-04-20T10:26:24.846Z,938.25
2018-04-20T10:27:24.882Z,938.21
2018-04-20T10:28:24.897Z,938.21
2018-04-20T10:29:25.089Z,938.23
2018-04-20T10:30:24.892Z,938.23
2018-04-20T10:31:24.918Z,938.22
2018-04-20T10:32:24.923Z,938.26
2018-04-20T10:33:24.940Z,938.25
2018-04-20T10:34:24.962Z,938.29
2018-04-20T10:35:25.098Z,938.25
2018-04-20T10:36:24.979Z,938.24
2018-04-20T10:37:25.024Z,938.24
2018-04-20T10:38:25.008Z,938.27
2018-04-20T10:39:25.023Z,938.26
2018-04-20T10:40:25.030Z,938.28
2018-04-20T10:41:25.084Z,938.28
2018-04-20T10:42:58.298Z,938.29
2018-04-20T10:43:25.107Z,938.27
2018-04-20T10:44:25.096Z,938.32
2018-04-20T10:45:25.217Z,938.34
2018-04-20T10:46:37.878Z,938.36
2018-04-20T10:47:25.136Z,938.38
2018-04-20T10:49:11.102Z,938.43
2018-04-20T10:50:24.074Z,938.44
2018-04-20T10:50:25.403Z,938.41
2018-04-20T10:51:25.221Z,938.42
2018-04-20T10:52:59.617Z,938.44
2018-04-20T10:53:25.242Z,938.47
2018-04-20T10:54:25.240Z,938.41
2018-04-20T10:55:25.401Z,938.46
2018-04-20T10:56:25.342Z,938.48
2018-04-20T10:57:25.278Z,938.48
2018-04-20T10:58:25.498Z,938.49
2018-04-20T11:00:18.721Z,938.44
2018-04-20T11:00:25.337Z,938.48
2018-04-20T11:01:25.371Z,938.52
2018-04-20T11:03:24.281Z,938.49
2018-04-20T11:03:25.476Z,938.50
2018-04-20T11:04:25.405Z,938.56
2018-04-20T11:06:25.550Z,938.54
2018-04-20T11:07:47.639Z,938.53
2018-04-20T11:08:25.451Z,938.56
2018-04-20T11:09:25.496Z,938.54
2018-04-20T11:10:58.900Z,938.57
2018-04-20T11:11:25.583Z,938.57
2018-04-20T11:12:25.527Z,938.63
2018-04-20T11:13:25.557Z,938.63
2018-04-20T11:14:58.771Z,938.62
2018-04-20T11:15:25.593Z,938.66
2018-04-20T11:16:25.596Z,938.64
2018-04-20T11:17:25.640Z,938.70
2018-04-20T11:18:25.622Z,938.71
2018-04-20T11:19:25.644Z,938.68
2018-04-20T11:20:25.648Z,938.72
2018-04-20T11:21:25.664Z,938.73
2018-04-20T11:22:25.679Z,938.74
2018-04-20T11:23:25.696Z,938.73
2018-04-20T11:24:25.734Z,938.74
2018-04-20T11:25:25.725Z,938.76
2018-04-20T11:26:25.747Z,938.75
2018-04-20T11:27:25.761Z,938.77
2018-04-20T11:28:25.775Z,938.80
2018-04-20T11:29:25.819Z,938.83
2018-04-20T11:30:25.844Z,938.82
2018-04-20T11:31:25.854Z,938.83
2018-04-20T11:32:25.848Z,938.86
2018-04-20T11:33:25.872Z,938.83
2018-04-20T11:34:25.908Z,938.81
2018-04-20T11:35:25.898Z,938.83
2018-04-20T11:36:26.035Z,938.83
2018-04-20T11:37:25.933Z,938.84
2018-04-20T11:38:25.950Z,938.84
2018-04-20T11:39:25.980Z,938.85
2018-04-20T11:40:25.986Z,938.87
2018-04-20T11:41:26.000Z,938.82
2018-04-20T11:42:26.027Z,938.87
2018-04-20T11:43:26.062Z,938.83
2018-04-20T11:44:26.076Z,938.87
2018-04-20T11:45:26.099Z,938.84
2018-04-20T11:46:26.115Z,938.87
2018-04-20T11:47:26.182Z,938.91
2018-04-20T11:48:26.122Z,938.96
2018-04-20T11:49:26.136Z,938.95
2018-04-20T11:50:26.164Z,938.95
2018-04-20T11:51:26.287Z,938.96
2018-04-20T11:52:26.193Z,938.95
2018-04-20T11:53:26.221Z,938.92
2018-04-20T11:54:26.236Z,938.92
2018-04-20T11:55:26.249Z,938.94
2018-04-20T11:56:26.412Z,938.93
2018-04-20T11:57:26.311Z,938.97
2018-04-20T11:58:26.306Z,938.95
2018-04-20T11:59:26.326Z,938.97
2018-04-20T12:00:26.341Z,938.94
2018-04-20T12:01:26.461Z,938.96
2018-04-20T12:02:26.410Z,938.96
2018-04-20T12:03:26.394Z,938.95
2018-04-20T12:04:26.417Z,938.95
2018-04-20T12:05:26.448Z,938.95
2018-04-20T12:06:26.590Z,938.94
2018-04-20T12:07:26.472Z,938.93
2018-04-20T12:08:26.517Z,938.93
2018-04-20T12:09:26.540Z,938.90
2018-04-20T12:10:26.529Z,938.90
2018-04-20T12:11:26.561Z,938.89
2018-04-20T12:12:26.598Z,938.89
2018-04-20T12:13:26.603Z,938.93
2018-04-20T12:14:26.600Z,938.90
2018-04-20T12:15:26.625Z,938.88
2018-04-20T12:16:26.743Z,938.85
2018-04-20T15:37:00.637Z,936.93
2018-04-20T15:38:00.689Z,936.94
2018-04-20T15:39:00.686Z,936.94
2018-04-20T15:40:00.740Z,936.94
2018-04-20T15:41:00.751Z,936.93
2018-04-20T15:42:00.947Z,936.92
2018-04-20T15:43:00.791Z,936.87
2018-04-20T15:44:00.847Z,936.87
2018-04-20T15:45:00.845Z,936.82
2018-04-20T15:46:00.872Z,936.81
2018-04-20T15:47:00.896Z,936.81
2018-04-20T15:48:00.948Z,936.79
2018-04-20T15:49:00.950Z,936.79
2018-04-20T15:50:01.003Z,936.73
2018-04-20T15:51:01.000Z,936.70